sensor_id;sensor_type;location;lat;lon;timestamp;pressure;altitude;pressure_sealevel;temperature;humidity
73245;BME280;61460;41.158;-73.238;2023-03-04T00:00:29;101480.87;;;23.82;33.49
73245;BME280;61460;41.158;-73.238;2023-03-04T00:03:00;101456.00;;;23.98;33.22
73245;BME280;61460;41.158;-73.238;2023-03-04T00:05:31;101433.17;;;24.00;33.30
73245;BME280;61460;41.158;-73.238;2023-03-04T00:08:01;101430.27;;;24.02;33.00
73245;BME280;61460;41.158;-73.238;2023-03-04T00:10:32;101420.24;;;23.97;33.08
73245;BME280;61460;41.158;-73.238;2023-03-04T00:13:03;101412.35;;;24.01;33.20
73245;BME280;61460;41.158;-73.238;2023-03-04T00:15:33;101401.70;;;23.94;33.28
73245;BME280;61460;41.158;-73.238;2023-03-04T00:18:04;101415.94;;;23.96;33.13
73245;BME280;61460;41.158;-73.238;2023-03-04T00:20:35;101423.47;;;23.98;33.14
73245;BME280;61460;41.158;-73.238;2023-03-04T00:23:05;101432.39;;;23.44;34.83
73245;BME280;61460;41.158;-73.238;2023-03-04T00:25:35;101421.95;;;23.71;33.88
73245;BME280;61460;41.158;-73.238;2023-03-04T00:28:06;101420.10;;;23.84;33.57
73245;BME280;61460;41.158;-73.238;2023-03-04T00:30:36;101403.31;;;23.91;33.71
73245;BME280;61460;41.158;-73.238;2023-03-04T00:33:07;101391.71;;;23.94;33.66
73245;BME280;61460;41.158;-73.238;2023-03-04T00:35:38;101364.26;;;23.97;33.22
73245;BME280;61460;41.158;-73.238;2023-03-04T00:38:08;101357.04;;;24.01;33.00
73245;BME280;61460;41.158;-73.238;2023-03-04T00:40:39;101343.85;;;23.71;33.21
73245;BME280;61460;41.158;-73.238;2023-03-04T00:43:09;101331.02;;;23.67;33.38
73245;BME280;61460;41.158;-73.238;2023-03-04T00:45:39;101294.32;;;23.77;33.79
73245;BME280;61460;41.158;-73.238;2023-03-04T00:48:10;101292.13;;;23.82;33.23
73245;BME280;61460;41.158;-73.238;2023-03-04T00:50:41;101288.49;;;23.93;33.13
73245;BME280;61460;41.158;-73.238;2023-03-04T00:53:11;101295.46;;;24.04;32.95
73245;BME280;61460;41.158;-73.238;2023-03-04T00:55:42;101306.37;;;24.03;33.00
73245;BME280;61460;41.158;-73.238;2023-03-04T00:58:12;101299.59;;;24.06;32.88
73245;BME280;61460;41.158;-73.238;2023-03-04T01:00:42;101311.83;;;24.03;32.81
73245;BME280;61460;41.158;-73.238;2023-03-04T01:03:13;101305.75;;;24.00;32.91
73245;BME280;61460;41.158;-73.238;2023-03-04T01:05:43;101288.79;;;23.98;32.81
73245;BME280;61460;41.158;-73.238;2023-03-04T01:08:14;101269.12;;;23.97;32.76
73245;BME280;61460;41.158;-73.238;2023-03-04T01:10:44;101258.04;;;23.96;32.69
73245;BME280;61460;41.158;-73.238;2023-03-04T01:13:15;101234.64;;;23.49;34.26
73245;BME280;61460;41.158;-73.238;2023-03-04T01:15:46;101208.04;;;23.73;33.16
73245;BME280;61460;41.158;-73.238;2023-03-04T01:18:16;101228.10;;;23.82;33.18
73245;BME280;61460;41.158;-73.238;2023-03-04T01:20:47;101224.61;;;23.89;33.11
73245;BME280;61460;41.158;-73.238;2023-03-04T01:23:17;101233.07;;;23.89;33.08
73245;BME280;61460;41.158;-73.238;2023-03-04T01:25:48;101246.79;;;23.92;32.85
73245;BME280;61460;41.158;-73.238;2023-03-04T01:28:18;101271.98;;;23.97;32.98
73245;BME280;61460;41.158;-73.238;2023-03-04T01:30:49;101275.59;;;23.94;32.97
73245;BME280;61460;41.158;-73.238;2023-03-04T01:33:19;101247.79;;;23.95;32.86
73245;BME280;61460;41.158;-73.238;2023-03-04T01:35:50;101224.15;;;23.94;32.72
73245;BME280;61460;41.158;-73.238;2023-03-04T01:38:21;101211.14;;;23.77;32.87
73245;BME280;61460;41.158;-73.238;2023-03-04T01:40:51;101208.54;;;23.65;33.49
73245;BME280;61460;41.158;-73.238;2023-03-04T01:43:24;101211.09;;;23.87;33.31
73245;BME280;61460;41.158;-73.238;2023-03-04T01:45:54;101214.58;;;23.88;33.07
73245;BME280;61460;41.158;-73.238;2023-03-04T01:48:25;101209.26;;;23.94;33.40
73245;BME280;61460;41.158;-73.238;2023-03-04T01:50:54;101196.74;;;24.00;33.07
73245;BME280;61460;41.158;-73.238;2023-03-04T01:53:26;101191.27;;;23.97;32.86
73245;BME280;61460;41.158;-73.238;2023-03-04T01:55:57;101171.77;;;23.99;32.82
73245;BME280;61460;41.158;-73.238;2023-03-04T01:58:29;101160.60;;;23.96;32.79
73245;BME280;61460;41.158;-73.238;2023-03-04T02:00:57;101134.29;;;23.98;32.73
73245;BME280;61460;41.158;-73.238;2023-03-04T02:03:27;101119.92;;;23.85;33.25
73245;BME280;61460;41.158;-73.238;2023-03-04T02:05:58;101125.21;;;23.54;33.28
73245;BME280;61460;41.158;-73.238;2023-03-04T02:08:29;101123.78;;;23.39;33.58
73245;BME280;61460;41.158;-73.238;2023-03-04T02:11:00;101122.53;;;23.42;33.61
73245;BME280;61460;41.158;-73.238;2023-03-04T02:13:30;101130.57;;;23.42;33.43
73245;BME280;61460;41.158;-73.238;2023-03-04T02:16:00;101132.80;;;23.37;33.49
73245;BME280;61460;41.158;-73.238;2023-03-04T02:18:31;101109.80;;;23.31;33.37
73245;BME280;61460;41.158;-73.238;2023-03-04T02:21:08;101087.44;;;23.24;33.50
73245;BME280;61460;41.158;-73.238;2023-03-04T02:23:38;101094.22;;;23.21;33.36
73245;BME280;61460;41.158;-73.238;2023-03-04T02:26:12;101074.66;;;23.14;33.39
73245;BME280;61460;41.158;-73.238;2023-03-04T02:28:34;101065.34;;;22.91;33.43
73245;BME280;61460;41.158;-73.238;2023-03-04T02:31:04;101089.24;;;22.80;34.58
73245;BME280;61460;41.158;-73.238;2023-03-04T02:33:35;101098.15;;;22.96;34.04
73245;BME280;61460;41.158;-73.238;2023-03-04T02:36:07;101086.16;;;22.91;34.03
73245;BME280;61460;41.158;-73.238;2023-03-04T02:38:36;101069.62;;;22.88;33.92
73245;BME280;61460;41.158;-73.238;2023-03-04T02:41:11;101079.91;;;22.85;33.87
73245;BME280;61460;41.158;-73.238;2023-03-04T02:43:38;101057.81;;;22.82;33.78
73245;BME280;61460;41.158;-73.238;2023-03-04T02:46:12;101023.76;;;22.80;33.73
73245;BME280;61460;41.158;-73.238;2023-03-04T02:48:39;101030.68;;;22.78;33.73
73245;BME280;61460;41.158;-73.238;2023-03-04T02:51:11;100996.89;;;22.76;33.65
73245;BME280;61460;41.158;-73.238;2023-03-04T02:53:41;100979.42;;;22.59;33.95
73245;BME280;61460;41.158;-73.238;2023-03-04T02:56:11;100967.31;;;22.49;34.39
73245;BME280;61460;41.158;-73.238;2023-03-04T02:58:42;100977.14;;;22.58;34.15
73245;BME280;61460;41.158;-73.238;2023-03-04T03:01:12;100982.05;;;22.60;33.99
73245;BME280;61460;41.158;-73.238;2023-03-04T03:03:43;100990.82;;;22.46;34.68
73245;BME280;61460;41.158;-73.238;2023-03-04T03:06:14;100973.35;;;22.43;34.79
73245;BME280;61460;41.158;-73.238;2023-03-04T03:08:44;100955.37;;;22.51;34.64
73245;BME280;61460;41.158;-73.238;2023-03-04T03:11:15;100964.29;;;22.53;34.70
73245;BME280;61460;41.158;-73.238;2023-03-04T03:13:46;100951.05;;;22.58;34.42
73245;BME280;61460;41.158;-73.238;2023-03-04T03:16:16;100915.20;;;22.40;34.61
73245;BME280;61460;41.158;-73.238;2023-03-04T03:18:47;100915.46;;;22.48;35.17
73245;BME280;61460;41.158;-73.238;2023-03-04T03:21:18;100916.63;;;22.41;34.96
73245;BME280;61460;41.158;-73.238;2023-03-04T03:23:49;100900.94;;;22.46;35.17
73245;BME280;61460;41.158;-73.238;2023-03-04T03:26:19;100868.42;;;22.52;35.12
73245;BME280;61460;41.158;-73.238;2023-03-04T03:28:50;100867.33;;;22.45;34.88
73245;BME280;61460;41.158;-73.238;2023-03-04T03:31:21;100873.90;;;22.44;34.78
73245;BME280;61460;41.158;-73.238;2023-03-04T03:33:52;100865.82;;;22.45;34.88
73245;BME280;61460;41.158;-73.238;2023-03-04T03:36:22;100860.71;;;22.35;34.91
73245;BME280;61460;41.158;-73.238;2023-03-04T03:38:52;100853.69;;;22.35;35.13
73245;BME280;61460;41.158;-73.238;2023-03-04T03:41:24;100853.26;;;22.38;35.17
73245;BME280;61460;41.158;-73.238;2023-03-04T03:43:54;100828.29;;;22.34;35.10
73245;BME280;61460;41.158;-73.238;2023-03-04T03:46:24;100825.74;;;22.31;35.31
73245;BME280;61460;41.158;-73.238;2023-03-04T03:48:55;100776.42;;;22.37;34.94
73245;BME280;61460;41.158;-73.238;2023-03-04T03:51:27;100768.16;;;22.37;34.61
73245;BME280;61460;41.158;-73.238;2023-03-04T03:53:56;100745.78;;;22.31;34.90
73245;BME280;61460;41.158;-73.238;2023-03-04T03:56:27;100741.29;;;22.21;35.14
73245;BME280;61460;41.158;-73.238;2023-03-04T03:58:58;100742.38;;;22.19;35.75
73245;BME280;61460;41.158;-73.238;2023-03-04T04:01:28;100690.83;;;22.22;35.48
73245;BME280;61460;41.158;-73.238;2023-03-04T04:03:59;100674.08;;;22.30;35.33
73245;BME280;61460;41.158;-73.238;2023-03-04T04:06:30;100644.72;;;22.33;35.05
73245;BME280;61460;41.158;-73.238;2023-03-04T04:09:00;100621.60;;;22.32;35.21
73245;BME280;61460;41.158;-73.238;2023-03-04T04:11:31;100600.83;;;22.27;35.46
73245;BME280;61460;41.158;-73.238;2023-03-04T04:14:02;100590.07;;;22.31;34.78
73245;BME280;61460;41.158;-73.238;2023-03-04T04:16:32;100583.66;;;22.19;35.33
73245;BME280;61460;41.158;-73.238;2023-03-04T04:19:03;100605.52;;;22.22;35.34
73245;BME280;61460;41.158;-73.238;2023-03-04T04:21:34;100626.15;;;22.23;35.07
73245;BME280;61460;41.158;-73.238;2023-03-04T04:24:04;100621.76;;;22.13;35.34
73245;BME280;61460;41.158;-73.238;2023-03-04T04:26:35;100608.06;;;22.16;35.28
73245;BME280;61460;41.158;-73.238;2023-03-04T04:29:07;100613.09;;;22.19;35.10
73245;BME280;61460;41.158;-73.238;2023-03-04T04:31:36;100606.57;;;22.17;35.02
73245;BME280;61460;41.158;-73.238;2023-03-04T04:34:07;100591.06;;;22.07;35.14
73245;BME280;61460;41.158;-73.238;2023-03-04T04:36:38;100571.48;;;22.03;35.23
73245;BME280;61460;41.158;-73.238;2023-03-04T04:39:09;100557.05;;;21.95;35.68
73245;BME280;61460;41.158;-73.238;2023-03-04T04:41:41;100536.97;;;22.09;35.31
73245;BME280;61460;41.158;-73.238;2023-03-04T04:44:10;100541.29;;;22.06;35.29
73245;BME280;61460;41.158;-73.238;2023-03-04T04:46:41;100535.54;;;22.04;35.36
73245;BME280;61460;41.158;-73.238;2023-03-04T04:49:11;100527.62;;;22.04;35.29
73245;BME280;61460;41.158;-73.238;2023-03-04T04:51:42;100507.20;;;22.02;35.24
73245;BME280;61460;41.158;-73.238;2023-03-04T04:54:13;100488.49;;;21.96;35.41
73245;BME280;61460;41.158;-73.238;2023-03-04T04:56:43;100491.63;;;21.94;35.43
73245;BME280;61460;41.158;-73.238;2023-03-04T04:59:14;100495.15;;;21.91;35.56
73245;BME280;61460;41.158;-73.238;2023-03-04T05:01:44;100504.23;;;22.00;35.38
73245;BME280;61460;41.158;-73.238;2023-03-04T05:04:15;100522.42;;;21.95;35.52
73245;BME280;61460;41.158;-73.238;2023-03-04T05:06:46;100516.46;;;21.87;35.65
73245;BME280;61460;41.158;-73.238;2023-03-04T05:09:17;100477.07;;;21.87;35.62
73245;BME280;61460;41.158;-73.238;2023-03-04T05:11:47;100479.60;;;21.90;35.77
73245;BME280;61460;41.158;-73.238;2023-03-04T05:14:18;100469.95;;;21.89;35.56
73245;BME280;61460;41.158;-73.238;2023-03-04T05:16:49;100464.14;;;21.89;35.79
73245;BME280;61460;41.158;-73.238;2023-03-04T05:19:19;100459.03;;;21.94;35.57
73245;BME280;61460;41.158;-73.238;2023-03-04T05:21:50;100431.16;;;21.91;35.61
73245;BME280;61460;41.158;-73.238;2023-03-04T05:24:21;100418.63;;;21.99;35.44
73245;BME280;61460;41.158;-73.238;2023-03-04T05:26:51;100398.03;;;21.91;35.55
73245;BME280;61460;41.158;-73.238;2023-03-04T05:29:22;100377.40;;;21.89;35.64
73245;BME280;61460;41.158;-73.238;2023-03-04T05:31:53;100345.11;;;21.83;35.57
73245;BME280;61460;41.158;-73.238;2023-03-04T05:34:23;100322.13;;;21.84;35.94
73245;BME280;61460;41.158;-73.238;2023-03-04T05:36:54;100321.49;;;22.00;35.86
73245;BME280;61460;41.158;-73.238;2023-03-04T05:39:25;100307.84;;;22.03;35.54
73245;BME280;61460;41.158;-73.238;2023-03-04T05:41:55;100287.34;;;21.99;35.32
73245;BME280;61460;41.158;-73.238;2023-03-04T05:44:26;100285.79;;;21.96;35.44
73245;BME280;61460;41.158;-73.238;2023-03-04T05:46:57;100296.06;;;21.93;35.27
73245;BME280;61460;41.158;-73.238;2023-03-04T05:49:27;100295.29;;;21.82;35.55
73245;BME280;61460;41.158;-73.238;2023-03-04T05:51:58;100273.39;;;21.85;35.47
73245;BME280;61460;41.158;-73.238;2023-03-04T05:54:29;100256.31;;;21.87;35.45
73245;BME280;61460;41.158;-73.238;2023-03-04T05:56:59;100207.80;;;21.84;35.65
73245;BME280;61460;41.158;-73.238;2023-03-04T05:59:30;100186.64;;;21.84;35.44
73245;BME280;61460;41.158;-73.238;2023-03-04T06:02:01;100174.42;;;21.88;35.33
73245;BME280;61460;41.158;-73.238;2023-03-04T06:04:32;100148.55;;;21.76;35.38
73245;BME280;61460;41.158;-73.238;2023-03-04T06:07:02;100125.71;;;21.84;35.31
73245;BME280;61460;41.158;-73.238;2023-03-04T06:09:33;100104.44;;;21.78;35.60
73245;BME280;61460;41.158;-73.238;2023-03-04T06:12:04;100104.72;;;21.75;35.53
73245;BME280;61460;41.158;-73.238;2023-03-04T06:14:34;100053.28;;;21.76;35.56
73245;BME280;61460;41.158;-73.238;2023-03-04T06:17:05;100035.81;;;21.83;35.47
73245;BME280;61460;41.158;-73.238;2023-03-04T06:19:35;100023.26;;;21.68;35.50
73245;BME280;61460;41.158;-73.238;2023-03-04T06:22:07;100046.06;;;21.69;35.89
73245;BME280;61460;41.158;-73.238;2023-03-04T06:24:37;100003.40;;;21.75;35.55
73245;BME280;61460;41.158;-73.238;2023-03-04T06:27:07;99979.31;;;21.73;35.56
73245;BME280;61460;41.158;-73.238;2023-03-04T06:29:38;99956.46;;;21.73;35.57
73245;BME280;61460;41.158;-73.238;2023-03-04T06:32:09;99960.61;;;21.77;35.75
73245;BME280;61460;41.158;-73.238;2023-03-04T06:34:39;99956.11;;;21.64;35.76
73245;BME280;61460;41.158;-73.238;2023-03-04T06:37:10;99947.73;;;21.58;36.26
73245;BME280;61460;41.158;-73.238;2023-03-04T06:39:41;99927.98;;;21.65;35.90
73245;BME280;61460;41.158;-73.238;2023-03-04T06:42:12;99918.27;;;21.70;35.97
73245;BME280;61460;41.158;-73.238;2023-03-04T06:44:42;99916.38;;;21.79;35.84
73245;BME280;61460;41.158;-73.238;2023-03-04T06:47:13;99891.31;;;21.76;35.76
73245;BME280;61460;41.158;-73.238;2023-03-04T06:49:43;99873.33;;;21.79;35.53
73245;BME280;61460;41.158;-73.238;2023-03-04T06:52:14;99877.91;;;21.68;35.87
73245;BME280;61460;41.158;-73.238;2023-03-04T06:54:45;99837.98;;;21.73;35.91
73245;BME280;61460;41.158;-73.238;2023-03-04T06:57:16;99813.50;;;21.73;35.85
73245;BME280;61460;41.158;-73.238;2023-03-04T06:59:46;99800.48;;;21.67;36.24
73245;BME280;61460;41.158;-73.238;2023-03-04T07:02:17;99779.41;;;21.68;35.84
73245;BME280;61460;41.158;-73.238;2023-03-04T07:04:47;99763.41;;;21.59;35.80
73245;BME280;61460;41.158;-73.238;2023-03-04T07:07:18;99745.32;;;21.64;35.69
73245;BME280;61460;41.158;-73.238;2023-03-04T07:09:49;99743.81;;;21.26;36.69
73245;BME280;61460;41.158;-73.238;2023-03-04T07:12:19;99727.82;;;21.51;36.06
73245;BME280;61460;41.158;-73.238;2023-03-04T07:14:50;99715.01;;;21.60;35.92
73245;BME280;61460;41.158;-73.238;2023-03-04T07:17:21;99722.11;;;21.68;35.74
73245;BME280;61460;41.158;-73.238;2023-03-04T07:19:52;99733.34;;;21.72;35.74
73245;BME280;61460;41.158;-73.238;2023-03-04T07:22:22;99741.19;;;21.51;35.93
73245;BME280;61460;41.158;-73.238;2023-03-04T07:24:53;99723.12;;;21.58;35.81
73245;BME280;61460;41.158;-73.238;2023-03-04T07:27:23;99732.45;;;21.63;35.79
73245;BME280;61460;41.158;-73.238;2023-03-04T07:29:54;99714.03;;;21.64;36.12
73245;BME280;61460;41.158;-73.238;2023-03-04T07:32:25;99680.90;;;21.66;36.01
73245;BME280;61460;41.158;-73.238;2023-03-04T07:34:55;99695.17;;;21.64;36.24
73245;BME280;61460;41.158;-73.238;2023-03-04T07:37:26;99682.42;;;21.61;36.14
73245;BME280;61460;41.158;-73.238;2023-03-04T07:39:57;99690.98;;;21.48;36.33
73245;BME280;61460;41.158;-73.238;2023-03-04T07:42:27;99675.46;;;21.45;36.20
73245;BME280;61460;41.158;-73.238;2023-03-04T07:44:58;99698.72;;;21.49;36.31
73245;BME280;61460;41.158;-73.238;2023-03-04T07:47:29;99700.97;;;21.48;36.20
73245;BME280;61460;41.158;-73.238;2023-03-04T07:49:59;99697.28;;;21.50;36.26
73245;BME280;61460;41.158;-73.238;2023-03-04T07:52:30;99712.51;;;21.42;36.55
73245;BME280;61460;41.158;-73.238;2023-03-04T07:55:01;99702.07;;;21.39;36.58
73245;BME280;61460;41.158;-73.238;2023-03-04T07:57:31;99719.96;;;21.34;36.44
73245;BME280;61460;41.158;-73.238;2023-03-04T08:00:03;99729.46;;;21.39;36.43
73245;BME280;61460;41.158;-73.238;2023-03-04T08:02:33;99724.30;;;21.36;36.67
73245;BME280;61460;41.158;-73.238;2023-03-04T08:05:04;99721.81;;;21.42;36.51
73245;BME280;61460;41.158;-73.238;2023-03-04T08:07:34;99694.16;;;21.33;37.00
73245;BME280;61460;41.158;-73.238;2023-03-04T08:10:06;99674.88;;;21.47;36.26
73245;BME280;61460;41.158;-73.238;2023-03-04T08:12:35;99666.21;;;21.49;36.53
73245;BME280;61460;41.158;-73.238;2023-03-04T08:15:07;99644.26;;;21.38;36.61
73245;BME280;61460;41.158;-73.238;2023-03-04T08:17:37;99636.50;;;21.36;36.73
73245;BME280;61460;41.158;-73.238;2023-03-04T08:20:09;99659.23;;;21.52;36.54
73245;BME280;61460;41.158;-73.238;2023-03-04T08:22:38;99685.44;;;21.48;36.76
73245;BME280;61460;41.158;-73.238;2023-03-04T08:25:09;99678.63;;;21.55;36.71
73245;BME280;61460;41.158;-73.238;2023-03-04T08:27:39;99644.46;;;21.54;36.76
73245;BME280;61460;41.158;-73.238;2023-03-04T08:30:11;99619.93;;;21.55;36.53
73245;BME280;61460;41.158;-73.238;2023-03-04T08:32:41;99637.25;;;21.42;37.14
73245;BME280;61460;41.158;-73.238;2023-03-04T08:35:12;99624.45;;;21.46;36.64
73245;BME280;61460;41.158;-73.238;2023-03-04T08:37:42;99627.33;;;21.35;37.19
73245;BME280;61460;41.158;-73.238;2023-03-04T08:40:14;99587.26;;;21.47;37.32
73245;BME280;61460;41.158;-73.238;2023-03-04T08:42:43;99574.91;;;21.60;37.02
73245;BME280;61460;41.158;-73.238;2023-03-04T08:45:14;99545.23;;;21.64;36.96
73245;BME280;61460;41.158;-73.238;2023-03-04T08:47:45;99532.47;;;21.71;37.07
73245;BME280;61460;41.158;-73.238;2023-03-04T08:50:16;99524.16;;;21.74;37.03
73245;BME280;61460;41.158;-73.238;2023-03-04T08:52:46;99528.71;;;21.76;37.24
73245;BME280;61460;41.158;-73.238;2023-03-04T08:55:17;99505.38;;;21.63;36.99
73245;BME280;61460;41.158;-73.238;2023-03-04T08:57:47;99499.76;;;21.68;36.80
73245;BME280;61460;41.158;-73.238;2023-03-04T09:00:18;99478.15;;;21.63;36.90
73245;BME280;61460;41.158;-73.238;2023-03-04T09:02:49;99467.24;;;21.75;36.84
73245;BME280;61460;41.158;-73.238;2023-03-04T09:05:19;99445.36;;;21.78;36.57
73245;BME280;61460;41.158;-73.238;2023-03-04T09:07:50;99438.18;;;21.84;36.64
73245;BME280;61460;41.158;-73.238;2023-03-04T09:10:21;99423.28;;;21.68;36.59
73245;BME280;61460;41.158;-73.238;2023-03-04T09:12:51;99421.28;;;21.61;36.78
73245;BME280;61460;41.158;-73.238;2023-03-04T09:15:22;99395.90;;;21.72;36.51
73245;BME280;61460;41.158;-73.238;2023-03-04T09:17:52;99380.93;;;21.78;36.61
73245;BME280;61460;41.158;-73.238;2023-03-04T09:20:23;99373.43;;;21.79;36.43
73245;BME280;61460;41.158;-73.238;2023-03-04T09:22:54;99321.27;;;21.69;36.56
73245;BME280;61460;41.158;-73.238;2023-03-04T09:25:24;99315.08;;;21.76;36.51
73245;BME280;61460;41.158;-73.238;2023-03-04T09:27:55;99337.34;;;21.71;36.46
73245;BME280;61460;41.158;-73.238;2023-03-04T09:30:26;99313.28;;;21.49;36.78
73245;BME280;61460;41.158;-73.238;2023-03-04T09:32:56;99312.93;;;21.63;36.82
73245;BME280;61460;41.158;-73.238;2023-03-04T09:35:27;99352.82;;;21.62;36.85
73245;BME280;61460;41.158;-73.238;2023-03-04T09:37:58;99377.01;;;21.74;37.08
73245;BME280;61460;41.158;-73.238;2023-03-04T09:40:32;99352.95;;;21.62;36.75
73245;BME280;61460;41.158;-73.238;2023-03-04T09:43:02;99333.46;;;21.69;36.51
73245;BME280;61460;41.158;-73.238;2023-03-04T09:45:36;99361.67;;;21.63;36.91
73245;BME280;61460;41.158;-73.238;2023-03-04T09:48:01;99326.50;;;21.69;36.53
73245;BME280;61460;41.158;-73.238;2023-03-04T09:50:33;99317.03;;;21.62;36.62
73245;BME280;61460;41.158;-73.238;2023-03-04T09:53:07;99276.39;;;21.63;36.94
73245;BME280;61460;41.158;-73.238;2023-03-04T09:55:35;99280.54;;;21.62;36.99
73245;BME280;61460;41.158;-73.238;2023-03-04T09:58:12;99298.71;;;21.58;37.38
73245;BME280;61460;41.158;-73.238;2023-03-04T10:00:38;99299.30;;;21.58;36.90
73245;BME280;61460;41.158;-73.238;2023-03-04T10:03:11;99305.20;;;21.66;36.97
73245;BME280;61460;41.158;-73.238;2023-03-04T10:05:39;99277.75;;;21.68;36.94
73245;BME280;61460;41.158;-73.238;2023-03-04T10:10:39;99279.97;;;21.52;37.16
73245;BME280;61460;41.158;-73.238;2023-03-04T10:13:13;99279.14;;;21.37;37.95
73245;BME280;61460;41.158;-73.238;2023-03-04T10:15:40;99278.51;;;21.58;37.38
73245;BME280;61460;41.158;-73.238;2023-03-04T10:18:15;99267.93;;;21.68;37.48
73245;BME280;61460;41.158;-73.238;2023-03-04T10:20:48;99249.14;;;21.73;37.36
73245;BME280;61460;41.158;-73.238;2023-03-04T10:23:13;99227.78;;;21.76;37.22
73245;BME280;61460;41.158;-73.238;2023-03-04T10:25:43;99227.23;;;21.80;36.98
73245;BME280;61460;41.158;-73.238;2023-03-04T10:28:15;99226.38;;;21.77;36.83
73245;BME280;61460;41.158;-73.238;2023-03-04T10:30:47;99230.16;;;21.75;37.06
73245;BME280;61460;41.158;-73.238;2023-03-04T10:33:14;99230.65;;;21.76;36.93
73245;BME280;61460;41.158;-73.238;2023-03-04T10:35:45;99234.02;;;21.79;37.14
73245;BME280;61460;41.158;-73.238;2023-03-04T10:38:14;99231.39;;;21.77;36.97
73245;BME280;61460;41.158;-73.238;2023-03-04T10:40:44;99237.72;;;21.80;37.19
73245;BME280;61460;41.158;-73.238;2023-03-04T10:43:16;99231.87;;;21.85;37.09
73245;BME280;61460;41.158;-73.238;2023-03-04T10:45:46;99228.00;;;21.81;37.05
73245;BME280;61460;41.158;-73.238;2023-03-04T10:48:20;99208.19;;;21.67;37.20
73245;BME280;61460;41.158;-73.238;2023-03-04T10:50:47;99178.24;;;21.73;36.93
73245;BME280;61460;41.158;-73.238;2023-03-04T10:53:27;99178.15;;;21.74;37.06
73245;BME280;61460;41.158;-73.238;2023-03-04T10:55:48;99164.47;;;21.79;37.17
73245;BME280;61460;41.158;-73.238;2023-03-04T10:58:19;99168.77;;;21.76;37.24
73245;BME280;61460;41.158;-73.238;2023-03-04T11:00:59;99180.12;;;21.80;37.17
73245;BME280;61460;41.158;-73.238;2023-03-04T11:03:24;99178.32;;;21.82;37.14
73245;BME280;61460;41.158;-73.238;2023-03-04T11:05:53;99183.83;;;21.81;37.55
73245;BME280;61460;41.158;-73.238;2023-03-04T11:08:22;99187.04;;;21.63;37.25
73245;BME280;61460;41.158;-73.238;2023-03-04T11:10:52;99197.27;;;21.65;37.58
73245;BME280;61460;41.158;-73.238;2023-03-04T11:13:23;99204.75;;;21.78;37.06
73245;BME280;61460;41.158;-73.238;2023-03-04T11:15:55;99214.18;;;21.85;37.39
73245;BME280;61460;41.158;-73.238;2023-03-04T11:18:29;99206.82;;;21.90;37.30
73245;BME280;61460;41.158;-73.238;2023-03-04T11:20:55;99209.09;;;21.92;37.27
73245;BME280;61460;41.158;-73.238;2023-03-04T11:23:32;99205.50;;;21.92;37.16
73245;BME280;61460;41.158;-73.238;2023-03-04T11:26:00;99202.98;;;21.97;37.35
73245;BME280;61460;41.158;-73.238;2023-03-04T11:28:33;99185.77;;;21.84;37.21
73245;BME280;61460;41.158;-73.238;2023-03-04T11:31:00;99181.64;;;21.89;37.39
73245;BME280;61460;41.158;-73.238;2023-03-04T11:33:35;99165.64;;;22.01;37.30
73245;BME280;61460;41.158;-73.238;2023-03-04T11:36:07;99152.46;;;22.01;37.70
73245;BME280;61460;41.158;-73.238;2023-03-04T11:38:34;99172.93;;;22.07;37.40
73245;BME280;61460;41.158;-73.238;2023-03-04T11:41:04;99187.24;;;21.99;37.57
73245;BME280;61460;41.158;-73.238;2023-03-04T11:43:34;99194.31;;;22.10;37.21
73245;BME280;61460;41.158;-73.238;2023-03-04T11:46:14;99215.84;;;22.00;37.30
73245;BME280;61460;41.158;-73.238;2023-03-04T11:48:42;99227.48;;;21.88;37.43
73245;BME280;61460;41.158;-73.238;2023-03-04T11:51:05;99238.58;;;21.98;37.28
73245;BME280;61460;41.158;-73.238;2023-03-04T11:53:42;99234.98;;;22.01;37.11
73245;BME280;61460;41.158;-73.238;2023-03-04T11:56:11;99241.54;;;21.90;37.23
73245;BME280;61460;41.158;-73.238;2023-03-04T11:58:46;99246.29;;;21.83;37.37
73245;BME280;61460;41.158;-73.238;2023-03-04T12:01:07;99239.84;;;21.86;37.69
73245;BME280;61460;41.158;-73.238;2023-03-04T12:06:10;99235.56;;;21.85;37.51
73245;BME280;61460;41.158;-73.238;2023-03-04T12:08:46;99241.50;;;21.98;37.42
73245;BME280;61460;41.158;-73.238;2023-03-04T12:11:12;99238.03;;;22.08;37.30
73245;BME280;61460;41.158;-73.238;2023-03-04T12:13:50;99240.33;;;22.06;37.68
73245;BME280;61460;41.158;-73.238;2023-03-04T12:16:19;99245.82;;;22.13;37.47
73245;BME280;61460;41.158;-73.238;2023-03-04T12:18:51;99247.50;;;22.10;37.45
73245;BME280;61460;41.158;-73.238;2023-03-04T12:21:20;99254.75;;;22.07;37.66
73245;BME280;61460;41.158;-73.238;2023-03-04T12:26:24;99260.81;;;22.17;37.98
73245;BME280;61460;41.158;-73.238;2023-03-04T12:28:49;99277.34;;;22.21;37.92
73245;BME280;61460;41.158;-73.238;2023-03-04T12:31:23;99284.66;;;22.27;37.83
73245;BME280;61460;41.158;-73.238;2023-03-04T12:33:53;99295.28;;;22.37;37.68
73245;BME280;61460;41.158;-73.238;2023-03-04T12:36:20;99293.09;;;22.44;37.55
73245;BME280;61460;41.158;-73.238;2023-03-04T12:38:56;99303.42;;;22.44;37.40
73245;BME280;61460;41.158;-73.238;2023-03-04T12:41:25;99313.75;;;22.45;37.51
73245;BME280;61460;41.158;-73.238;2023-03-04T12:43:53;99317.13;;;22.44;37.60
73245;BME280;61460;41.158;-73.238;2023-03-04T12:46:26;99313.61;;;22.47;37.60
73245;BME280;61460;41.158;-73.238;2023-03-04T12:48:54;99306.18;;;22.53;37.48
73245;BME280;61460;41.158;-73.238;2023-03-04T12:51:28;99303.23;;;22.50;37.48
73245;BME280;61460;41.158;-73.238;2023-03-04T12:53:57;99301.65;;;22.52;37.56
73245;BME280;61460;41.158;-73.238;2023-03-04T12:56:25;99308.01;;;22.36;37.87
73245;BME280;61460;41.158;-73.238;2023-03-04T12:58:51;99315.94;;;22.32;38.09